Time;durP1;ratioP1;P1;durP2;ratioP2;P2;SDS_P1;SDS_P2;PMS_P1;PMS_P2;Temp;Humidity;BMP_temperature;BMP_pressure;BME280_temperature;BME280_humidity;BME280_pressure;Samples;Min_cycle;Max_cycle;Signal;HPM_P1;HPM_P2
2022/05/26 00:00:17;;;;;;;2.73;0.60;;;22.90;99.90;;;;;;6252295;23;20168;-93
2022/05/26 00:02:48;;;;;;;1.33;0.53;;;22.50;99.90;;;;;;6225755;23;20207;-93
2022/05/26 00:05:20;;;;;;;0.93;0.73;;;22.30;99.90;;;;;;6252450;23;20171;-92
2022/05/26 00:07:52;;;;;;;1.70;0.67;;;22.60;99.90;;;;;;6253661;23;20164;-93
2022/05/26 00:10:24;;;;;;;0.80;0.53;;;23.00;99.90;;;;;;6252285;23;20164;-92
2022/05/26 00:13:00;;;;;;;0.50;0.50;;;23.00;99.90;;;;;;6252134;23;20176;-92
2022/05/26 00:15:34;;;;;;;0.60;0.40;;;22.70;99.90;;;;;;6254493;23;20259;-92
2022/05/26 00:18:05;;;;;;;0.50;0.50;;;22.80;99.90;;;;;;6251722;23;20731;-92
2022/05/26 00:20:37;;;;;;;2.30;0.70;;;23.00;99.90;;;;;;6252499;23;20172;-92
2022/05/26 00:23:09;;;;;;;0.87;0.60;;;23.10;99.90;;;;;;6257243;23;20208;-93
2022/05/26 00:25:41;;;;;;;0.77;0.70;;;23.00;99.90;;;;;;6225382;23;20227;-92
2022/05/26 00:28:16;;;;;;;2.00;0.70;;;23.10;99.90;;;;;;6251240;23;20171;-92
2022/05/26 00:30:48;;;;;;;1.00;0.90;;;23.10;99.90;;;;;;6252149;23;20265;-92
2022/05/26 00:33:21;;;;;;;0.77;0.63;;;23.00;99.90;;;;;;6228849;23;20180;-92
2022/05/26 00:35:54;;;;;;;1.50;0.63;;;23.10;99.90;;;;;;6258247;23;20160;-92
2022/05/26 00:38:26;;;;;;;0.93;0.50;;;23.00;99.90;;;;;;6229118;23;20175;-93
2022/05/26 00:41:09;;;;;;;0.97;0.70;;;22.60;99.90;;;;;;6251503;23;20176;-93
2022/05/26 00:43:52;;;;;;;0.67;0.60;;;22.70;99.90;;;;;;6252534;23;20203;-93
2022/05/26 00:46:31;;;;;;;1.00;0.70;;;22.70;99.90;;;;;;6250424;23;20255;-93
2022/05/26 00:49:07;;;;;;;0.60;0.60;;;22.90;99.90;;;;;;6230593;23;20168;-93
2022/05/26 00:51:40;;;;;;;3.23;0.90;;;22.40;99.90;;;;;;6226323;23;20725;-93
2022/05/26 00:54:19;;;;;;;0.70;0.70;;;22.20;99.90;;;;;;6251036;23;20182;-93
2022/05/26 00:56:56;;;;;;;2.13;0.87;;;22.40;99.90;;;;;;6253464;22;20215;-90
2022/05/26 00:59:43;;;;;;;0.90;0.80;;;22.70;99.90;;;;;;6254420;23;20705;-93
2022/05/26 01:02:20;;;;;;;1.00;0.70;;;23.30;99.90;;;;;;6229442;23;20175;-92
2022/05/26 01:22:00;;;;;;;1.00;0.80;;;22.70;99.90;;;;;;6233458;22;20214;-91
2022/05/26 01:25:05;;;;;;;1.03;0.70;;;22.60;99.90;;;;;;6255403;23;20203;-93
2022/05/26 01:27:38;;;;;;;1.13;0.70;;;22.50;99.90;;;;;;6266038;23;20186;-93
2022/05/26 01:30:23;;;;;;;2.03;0.70;;;22.80;99.90;;;;;;6231480;23;20182;-93
2022/05/26 01:33:21;;;;;;;0.80;0.67;;;22.70;99.90;;;;;;6254803;23;20167;-93
2022/05/26 01:36:13;;;;;;;1.83;0.80;;;23.00;99.90;;;;;;6255045;23;20176;-93
2022/05/26 01:39:03;;;;;;;0.80;0.70;;;23.30;99.90;;;;;;6237534;23;20184;-94
2022/05/26 01:42:03;;;;;;;2.00;0.77;;;22.90;99.90;;;;;;6254049;22;20211;-93
2022/05/26 01:44:46;;;;;;;0.60;0.60;;;22.60;99.90;;;;;;6258710;23;20191;-93
2022/05/26 01:47:29;;;;;;;1.27;0.90;;;23.10;99.90;;;;;;6233354;23;20186;-93
2022/05/26 01:50:09;;;;;;;1.20;1.00;;;23.40;99.90;;;;;;6260763;23;20175;-94
2022/05/26 01:52:52;;;;;;;1.00;0.90;;;23.70;99.90;;;;;;6231289;23;20165;-93
2022/05/26 01:55:32;;;;;;;1.10;0.70;;;23.80;99.90;;;;;;6202951;23;20172;-93
2022/05/26 01:58:10;;;;;;;1.40;0.90;;;23.60;99.90;;;;;;6232200;23;20183;-93
2022/05/26 02:00:44;;;;;;;2.43;0.67;;;23.20;99.90;;;;;;6211167;23;20221;-92
2022/05/26 02:03:18;;;;;;;1.00;0.80;;;22.90;99.90;;;;;;6241367;23;20177;-93
2022/05/26 02:05:57;;;;;;;1.37;0.80;;;22.50;99.90;;;;;;6241441;23;20198;-93
2022/05/26 02:08:33;;;;;;;2.43;1.00;;;22.20;99.90;;;;;;6240791;23;20194;-93
2022/05/26 02:16:55;;;;;;;0.77;0.77;;;20.70;99.90;;;;;;6216190;22;20232;-92
2022/05/26 02:19:32;;;;;;;1.67;0.90;;;20.50;99.90;;;;;;6237618;23;20168;-93
2022/05/26 02:22:17;;;;;;;1.73;0.80;;;20.20;99.90;;;;;;6238279;23;20203;-92
2022/05/26 02:24:53;;;;;;;1.40;1.10;;;20.10;99.90;;;;;;6229286;23;20200;-92
2022/05/26 02:27:26;;;;;;;3.23;1.10;;;19.70;99.90;;;;;;6226448;23;20319;-92
2022/05/26 02:30:00;;;;;;;1.50;1.03;;;19.60;99.90;;;;;;6224676;23;20176;-92
2022/05/26 02:32:35;;;;;;;1.47;0.87;;;19.50;99.90;;;;;;6225491;23;20167;-92
2022/05/26 02:35:09;;;;;;;1.53;1.03;;;19.40;99.90;;;;;;6240574;23;20152;-92
2022/05/26 02:37:44;;;;;;;3.50;0.97;;;19.20;99.90;;;;;;6228095;23;20567;-92
2022/05/26 02:40:16;;;;;;;2.87;1.20;;;19.20;99.90;;;;;;6225416;23;20226;-92
2022/05/26 02:42:49;;;;;;;1.90;0.87;;;19.10;99.90;;;;;;6225387;23;20180;-92
2022/05/26 02:45:33;;;;;;;1.23;1.00;;;18.90;99.90;;;;;;6227391;23;20291;-92
2022/05/26 02:48:12;;;;;;;1.73;0.80;;;18.70;99.90;;;;;;6237358;23;20199;-92
2022/05/26 02:50:54;;;;;;;3.23;1.17;;;18.70;99.90;;;;;;6210779;23;20196;-93
2022/05/26 02:53:33;;;;;;;1.43;1.03;;;18.60;99.90;;;;;;6234369;23;20164;-92
2022/05/26 02:56:12;;;;;;;2.73;1.20;;;18.60;99.90;;;;;;6231223;23;20180;-92
2022/05/26 02:58:57;;;;;;;1.23;0.87;;;18.60;99.90;;;;;;6240393;23;20203;-93
2022/05/26 03:01:35;;;;;;;1.47;0.90;;;18.50;99.90;;;;;;6239255;23;20172;-93
2022/05/26 03:04:10;;;;;;;2.33;1.00;;;18.50;99.90;;;;;;6227019;23;20204;-93
2022/05/26 03:06:57;;;;;;;1.80;1.00;;;18.30;99.90;;;;;;6230877;23;20182;-93
2022/05/26 03:09:39;;;;;;;2.83;1.30;;;18.30;99.90;;;;;;6237554;23;20287;-95
2022/05/26 03:12:33;;;;;;;1.70;1.00;;;18.20;99.90;;;;;;6238312;23;20172;-93
2022/05/26 03:15:11;;;;;;;2.67;1.00;;;18.00;99.90;;;;;;6237731;23;20176;-92
2022/05/26 03:17:42;;;;;;;3.17;1.43;;;17.80;99.90;;;;;;6233132;23;20216;-91
2022/05/26 03:20:15;;;;;;;1.63;1.00;;;17.60;99.90;;;;;;6232734;23;20180;-93
2022/05/26 03:22:47;;;;;;;1.43;1.00;;;17.50;99.90;;;;;;6235001;23;20176;-93
2022/05/26 03:25:21;;;;;;;1.57;0.93;;;17.40;99.90;;;;;;6238107;23;20188;-93
2022/05/26 03:27:54;;;;;;;2.80;1.03;;;17.20;99.90;;;;;;6237559;23;20176;-93
2022/05/26 03:30:28;;;;;;;1.73;1.00;;;17.30;99.90;;;;;;6237145;23;20173;-93
2022/05/26 03:33:13;;;;;;;1.60;1.07;;;17.20;99.90;;;;;;6236949;23;20168;-93
2022/05/26 03:41:34;;;;;;;1.73;1.17;;;16.90;99.90;;;;;;6242445;22;20188;-90
2022/05/26 03:44:08;;;;;;;2.63;1.40;;;16.80;99.90;;;;;;6242206;23;20187;-92
2022/05/26 03:46:41;;;;;;;1.20;0.90;;;16.70;99.90;;;;;;6242247;23;20214;-92
2022/05/26 03:49:13;;;;;;;4.43;1.20;;;16.50;99.90;;;;;;6216605;23;20195;-92
2022/05/26 03:51:45;;;;;;;1.27;1.00;;;16.50;99.90;;;;;;6240154;23;20169;-91
2022/05/26 03:54:21;;;;;;;2.00;1.00;;;16.50;99.90;;;;;;6239962;23;20175;-92
2022/05/26 03:57:05;;;;;;;1.37;0.80;;;16.30;99.90;;;;;;6265323;22;20286;-92
2022/05/26 03:59:44;;;;;;;1.13;0.93;;;16.20;99.90;;;;;;6265035;23;20163;-92
2022/05/26 04:02:17;;;;;;;1.57;1.10;;;16.10;99.90;;;;;;6241822;23;20159;-92
2022/05/26 04:04:49;;;;;;;3.77;1.30;;;16.00;99.90;;;;;;6266518;23;20207;-92
2022/05/26 04:07:21;;;;;;;1.47;1.10;;;16.00;99.90;;;;;;6264154;23;20223;-92
2022/05/26 04:09:53;;;;;;;1.67;1.27;;;15.90;99.90;;;;;;6264339;23;20229;-92
2022/05/26 04:12:32;;;;;;;2.10;1.23;;;15.70;99.90;;;;;;6264990;23;20172;-92
2022/05/26 04:15:14;;;;;;;2.30;1.30;;;15.70;99.90;;;;;;6258212;23;20500;-92
2022/05/26 04:17:55;;;;;;;1.87;1.23;;;15.70;99.90;;;;;;6253239;23;20182;-92
2022/05/26 04:20:26;;;;;;;1.57;1.10;;;15.60;99.90;;;;;;6253933;23;20286;-93
2022/05/26 04:22:58;;;;;;;2.47;1.50;;;15.50;99.90;;;;;;6253177;23;20175;-92
2022/05/26 04:25:29;;;;;;;1.80;1.20;;;15.40;99.90;;;;;;6252318;23;20204;-93
2022/05/26 04:28:02;;;;;;;1.80;1.50;;;15.40;99.90;;;;;;6251905;23;20182;-92
2022/05/26 04:30:33;;;;;;;3.07;1.43;;;15.30;99.90;;;;;;6251181;23;20471;-92
2022/05/26 04:33:04;;;;;;;1.73;1.20;;;15.20;99.90;;;;;;6253813;23;20180;-92
2022/05/26 04:35:39;;;;;;;1.90;1.43;;;15.20;99.90;;;;;;6253394;23;20516;-92
2022/05/26 04:38:11;;;;;;;2.53;1.40;;;15.20;99.90;;;;;;6253412;23;20203;-92
2022/05/26 04:40:43;;;;;;;3.17;1.27;;;15.10;99.90;;;;;;6253710;23;20168;-91
2022/05/26 04:43:19;;;;;;;2.27;1.40;;;15.10;99.90;;;;;;6256889;23;20175;-92
2022/05/26 04:45:50;;;;;;;1.87;1.10;;;15.10;99.90;;;;;;6258382;23;20219;-92
2022/05/26 04:48:26;;;;;;;2.67;1.47;;;15.00;99.90;;;;;;6253094;23;20190;-92
2022/05/26 04:50:59;;;;;;;2.40;1.40;;;14.90;99.90;;;;;;6259524;23;20187;-92
2022/05/26 04:53:33;;;;;;;3.57;1.33;;;14.90;99.90;;;;;;6231089;23;20160;-92
2022/05/26 04:56:05;;;;;;;2.40;1.13;;;14.90;99.90;;;;;;6253300;23;20210;-93
2022/05/26 04:58:40;;;;;;;2.70;1.30;;;14.90;99.90;;;;;;6265262;23;20198;-92
2022/05/26 05:01:20;;;;;;;1.90;1.17;;;14.80;99.90;;;;;;6257424;23;20609;-91
2022/05/26 05:03:52;;;;;;;2.20;1.40;;;14.80;99.90;;;;;;6227150;23;20671;-92
2022/05/26 05:06:25;;;;;;;3.10;1.10;;;14.80;99.90;;;;;;6250719;23;20278;-92
2022/05/26 05:08:56;;;;;;;3.07;1.30;;;14.80;99.90;;;;;;6250631;23;20224;-92
2022/05/26 05:11:28;;;;;;;1.87;1.40;;;14.80;99.90;;;;;;6250936;23;20186;-92
2022/05/26 05:14:05;;;;;;;4.00;1.13;;;14.70;99.90;;;;;;6252193;23;20183;-93
2022/05/26 05:16:42;;;;;;;2.93;1.43;;;14.70;99.90;;;;;;6251232;23;20257;-93
2022/05/26 05:19:15;;;;;;;3.37;1.40;;;14.70;99.90;;;;;;6253871;23;20613;-93
2022/05/26 05:21:51;;;;;;;3.70;1.57;;;14.80;99.90;;;;;;6250887;23;20514;-93
2022/05/26 05:24:28;;;;;;;3.93;1.50;;;14.80;99.90;;;;;;6251157;23;20221;-92
2022/05/26 05:27:05;;;;;;;1.30;1.10;;;14.70;99.90;;;;;;6253002;23;20259;-93
2022/05/26 05:29:42;;;;;;;3.30;1.03;;;14.60;99.90;;;;;;6254461;23;20178;-93
2022/05/26 05:32:20;;;;;;;2.77;1.30;;;14.50;99.90;;;;;;6254487;23;20214;-93
2022/05/26 05:34:57;;;;;;;1.27;1.17;;;14.50;99.90;;;;;;6251331;23;20175;-92
2022/05/26 05:37:33;;;;;;;3.27;1.67;;;14.40;99.90;;;;;;6224895;23;20642;-92
2022/05/26 05:40:05;;;;;;;2.30;1.10;;;14.40;99.90;;;;;;6253161;23;20214;-93
2022/05/26 05:42:37;;;;;;;1.10;1.00;;;14.30;99.90;;;;;;6257514;23;20183;-92
2022/05/26 05:45:12;;;;;;;2.30;1.20;;;14.20;99.90;;;;;;6252149;23;20609;-92
2022/05/26 05:47:43;;;;;;;1.60;1.03;;;14.20;99.90;;;;;;6251801;23;20179;-92
2022/05/26 05:50:15;;;;;;;1.40;1.10;;;14.20;99.90;;;;;;6252244;23;20200;-92
2022/05/26 05:52:46;;;;;;;2.53;1.03;;;14.10;99.90;;;;;;6224531;23;20179;-93
2022/05/26 05:55:20;;;;;;;2.57;1.23;;;14.00;99.90;;;;;;6250481;23;20519;-92
2022/05/26 05:57:52;;;;;;;2.10;1.27;;;14.00;99.90;;;;;;6251095;23;20180;-92
2022/05/26 06:00:25;;;;;;;5.73;1.00;;;13.90;99.90;;;;;;6249609;23;20177;-93
2022/05/26 06:02:59;;;;;;;1.53;1.43;;;13.90;99.90;;;;;;6250313;23;20249;-93
2022/05/26 06:05:30;;;;;;;3.17;0.97;;;13.90;99.90;;;;;;6251315;23;20618;-92
2022/05/26 06:08:03;;;;;;;2.33;1.00;;;13.90;99.90;;;;;;6223913;23;20176;-93
2022/05/26 06:10:35;;;;;;;2.00;1.00;;;13.80;99.90;;;;;;6249854;23;20179;-93
2022/05/26 06:13:06;;;;;;;2.37;0.90;;;13.70;99.90;;;;;;6251332;23;20172;-92
2022/05/26 06:15:56;;;;;;;1.10;1.00;;;13.70;99.90;;;;;;6248654;22;20211;-93
2022/05/26 06:18:32;;;;;;;1.13;1.00;;;13.70;99.90;;;;;;6241442;23;20171;-92
2022/05/26 06:21:05;;;;;;;1.77;1.00;;;13.60;99.90;;;;;;6268941;23;20167;-93
2022/05/26 06:23:38;;;;;;;3.27;1.23;;;13.60;99.90;;;;;;6268087;23;20175;-93
2022/05/26 06:26:10;;;;;;;1.57;1.10;;;13.50;99.90;;;;;;6269758;23;20230;-93
2022/05/26 06:31:35;;;;;;;2.17;1.23;;;13.40;99.90;;;;;;6269317;23;20202;-92
2022/05/26 06:39:42;;;;;;;1.33;1.00;;;13.20;99.90;;;;;;6266742;23;20183;-92
2022/05/26 06:42:14;;;;;;;2.70;1.20;;;13.10;99.90;;;;;;6269368;23;20180;-91
2022/05/26 06:44:48;;;;;;;1.90;1.00;;;13.10;99.90;;;;;;6238537;23;20176;-92
2022/05/26 06:47:24;;;;;;;1.47;1.00;;;13.10;99.90;;;;;;6258123;23;20195;-92
2022/05/26 06:49:56;;;;;;;2.00;1.10;;;13.00;99.90;;;;;;6257257;23;20283;-92
2022/05/26 06:52:28;;;;;;;1.00;1.00;;;13.00;99.90;;;;;;6259455;23;20175;-92
2022/05/26 06:55:01;;;;;;;2.00;1.10;;;13.10;99.90;;;;;;6253686;23;20614;-92
2022/05/26 06:57:33;;;;;;;1.73;1.00;;;13.10;99.90;;;;;;6258287;23;20175;-92
2022/05/26 07:00:06;;;;;;;2.97;0.97;;;13.10;99.90;;;;;;6230022;23;20589;-91
2022/05/26 07:02:39;;;;;;;4.83;1.23;;;13.10;99.90;;;;;;6261733;23;20183;-91
2022/05/26 07:05:15;;;;;;;1.90;1.07;;;13.00;99.90;;;;;;6266346;23;20250;-92
2022/05/26 07:07:49;;;;;;;3.20;1.07;;;13.00;99.90;;;;;;6236173;23;20203;-92
2022/05/26 07:10:22;;;;;;;2.77;1.10;;;13.00;99.90;;;;;;6250551;23;20175;-92
2022/05/26 07:12:54;;;;;;;1.43;0.93;;;13.00;99.90;;;;;;6261251;23;20168;-92
2022/05/26 07:15:30;;;;;;;1.53;0.93;;;13.00;99.90;;;;;;6254358;23;20160;-92
2022/05/26 07:18:06;;;;;;;2.67;1.00;;;12.90;99.90;;;;;;6254494;23;20172;-92
2022/05/26 07:20:38;;;;;;;1.83;1.00;;;12.90;99.90;;;;;;6252429;23;20203;-92
2022/05/26 07:23:10;;;;;;;2.50;0.93;;;12.90;99.90;;;;;;6257715;22;20195;-92
2022/05/26 07:25:43;;;;;;;1.30;0.87;;;13.00;99.90;;;;;;6256571;23;20168;-92
2022/05/26 07:28:15;;;;;;;3.53;1.17;;;13.00;99.90;;;;;;6253882;23;20203;-92
2022/05/26 07:30:46;;;;;;;1.80;1.07;;;12.90;99.90;;;;;;6254360;22;20186;-92
2022/05/26 07:33:19;;;;;;;2.90;1.20;;;12.90;99.90;;;;;;6254516;22;20245;-91
2022/05/26 07:35:52;;;;;;;4.03;1.00;;;12.80;99.90;;;;;;6254688;23;20514;-93
2022/05/26 07:41:28;;;;;;;1.67;1.10;;;12.80;99.90;;;;;;6134943;23;20190;-92
2022/05/26 07:44:00;;;;;;;1.87;1.00;;;12.90;99.90;;;;;;6208748;23;20175;-91
2022/05/26 07:46:32;;;;;;;3.07;1.50;;;12.90;99.90;;;;;;6253768;23;20199;-91
2022/05/26 07:49:09;;;;;;;1.33;0.90;;;13.00;99.90;;;;;;6226601;23;20203;-92
2022/05/26 07:51:40;;;;;;;2.00;0.90;;;12.90;99.90;;;;;;6251457;23;20179;-92
2022/05/26 07:54:11;;;;;;;3.07;1.70;;;12.80;99.90;;;;;;6251396;23;20178;-92
2022/05/26 07:56:43;;;;;;;3.20;1.23;;;12.80;99.90;;;;;;6251146;23;20176;-92
2022/05/26 07:59:14;;;;;;;2.33;1.07;;;12.80;99.90;;;;;;6254244;23;20195;-92
2022/05/26 08:01:45;;;;;;;3.40;1.07;;;12.80;99.90;;;;;;6253283;23;20172;-92
2022/05/26 08:04:20;;;;;;;3.63;1.27;;;12.80;99.90;;;;;;6229211;23;20176;-91
2022/05/26 08:06:51;;;;;;;1.10;1.00;;;12.90;99.90;;;;;;6261731;23;20199;-91
2022/05/26 08:09:24;;;;;;;4.30;1.30;;;12.90;99.90;;;;;;6253517;23;20175;-91
2022/05/26 08:12:02;;;;;;;1.20;1.10;;;12.80;99.90;;;;;;6237078;23;20164;-90
2022/05/26 08:14:36;;;;;;;1.57;1.00;;;12.80;99.90;;;;;;6262046;23;20198;-91
2022/05/26 08:17:08;;;;;;;1.87;1.20;;;12.80;99.90;;;;;;6261239;23;20233;-92
2022/05/26 08:19:43;;;;;;;2.10;1.10;;;12.80;99.90;;;;;;6250985;23;20187;-92
2022/05/26 08:22:15;;;;;;;2.20;0.90;;;12.80;99.90;;;;;;6252313;23;20168;-92
2022/05/26 08:24:52;;;;;;;2.40;1.00;;;12.80;99.90;;;;;;6230903;23;20175;-92
2022/05/26 08:27:24;;;;;;;2.37;1.00;;;12.70;99.90;;;;;;6253086;23;20256;-92
2022/05/26 08:29:56;;;;;;;4.03;1.10;;;12.70;99.90;;;;;;6251485;23;20179;-92
2022/05/26 08:32:28;;;;;;;2.33;1.20;;;12.60;99.90;;;;;;6251752;23;20168;-92
2022/05/26 08:35:03;;;;;;;2.03;0.87;;;12.70;99.90;;;;;;6252080;23;20168;-92
2022/05/26 08:37:35;;;;;;;2.70;1.10;;;12.60;99.90;;;;;;6252600;23;20167;-92
2022/05/26 08:40:11;;;;;;;3.33;1.30;;;12.60;99.90;;;;;;6224494;23;20164;-92
2022/05/26 08:42:42;;;;;;;4.53;1.30;;;12.70;99.90;;;;;;6251557;23;20191;-92
2022/05/26 08:45:15;;;;;;;1.47;0.90;;;12.80;99.90;;;;;;6252717;23;20174;-93
2022/05/26 08:47:51;;;;;;;1.80;1.03;;;12.70;99.90;;;;;;6251915;23;20191;-93
2022/05/26 08:50:29;;;;;;;2.30;1.17;;;12.70;99.90;;;;;;6251690;23;20183;-92
2022/05/26 08:53:08;;;;;;;2.17;0.90;;;12.60;99.90;;;;;;6227866;23;20173;-91
2022/05/26 08:55:45;;;;;;;2.70;1.00;;;12.60;99.90;;;;;;6259863;23;20181;-90
2022/05/26 08:58:19;;;;;;;2.00;0.90;;;12.60;99.90;;;;;;6272892;22;20198;-92
2022/05/26 09:00:53;;;;;;;3.63;1.00;;;12.50;99.90;;;;;;6271164;22;20179;-92
2022/05/26 09:03:28;;;;;;;3.43;1.57;;;12.50;99.90;;;;;;6271067;22;20197;-92
2022/05/26 09:06:06;;;;;;;2.00;1.10;;;12.40;99.90;;;;;;6265354;23;20171;-91
2022/05/26 09:14:27;;;;;;;1.63;1.00;;;12.40;99.90;;;;;;6252221;23;20465;-92
2022/05/26 09:17:00;;;;;;;1.80;0.93;;;12.30;99.90;;;;;;6252634;23;20250;-92
2022/05/26 09:19:48;;;;;;;3.60;1.10;;;12.20;99.90;;;;;;6252828;23;20175;-92
2022/05/26 09:22:44;;;;;;;1.70;0.90;;;12.20;99.90;;;;;;6260994;23;20191;-91
2022/05/26 09:25:36;;;;;;;2.40;0.97;;;12.10;99.90;;;;;;6261497;23;20172;-92
2022/05/26 09:28:10;;;;;;;1.40;0.90;;;12.00;99.90;;;;;;6251433;23;20204;-92
2022/05/26 09:30:42;;;;;;;1.53;0.90;;;12.00;99.90;;;;;;6251467;23;20233;-92
2022/05/26 09:33:28;;;;;;;2.17;1.20;;;11.90;99.90;;;;;;6257465;23;20241;-91
2022/05/26 09:36:21;;;;;;;1.97;0.80;;;11.90;99.90;;;;;;6267333;23;20167;-92
2022/05/26 09:38:54;;;;;;;1.97;1.10;;;11.80;99.90;;;;;;6271947;23;20156;-92
2022/05/26 09:41:27;;;;;;;1.20;1.00;;;11.70;99.90;;;;;;6270589;22;20179;-92
2022/05/26 09:44:02;;;;;;;1.73;1.00;;;11.60;99.90;;;;;;6272289;22;20159;-92
2022/05/26 09:46:56;;;;;;;2.23;0.97;;;11.50;99.90;;;;;;6271967;22;20187;-91
2022/05/26 09:49:34;;;;;;;1.90;1.00;;;11.50;99.90;;;;;;6268404;22;20211;-90
2022/05/26 09:52:15;;;;;;;4.30;0.90;;;11.50;99.90;;;;;;6272469;22;20175;-92
2022/05/26 09:54:49;;;;;;;1.70;0.90;;;11.50;99.90;;;;;;6273373;22;20186;-93
2022/05/26 09:57:23;;;;;;;1.53;1.20;;;11.50;99.90;;;;;;6273014;23;20182;-92
2022/05/26 09:59:55;;;;;;;2.90;1.17;;;11.40;99.90;;;;;;6261341;23;20183;-93
2022/05/26 10:02:30;;;;;;;2.23;1.00;;;11.40;99.90;;;;;;6253515;23;20214;-93
2022/05/26 10:05:09;;;;;;;1.83;1.07;;;11.50;99.90;;;;;;6253462;23;20167;-92
2022/05/26 10:08:01;;;;;;;2.23;0.87;;;11.40;99.90;;;;;;6228828;23;20628;-93
2022/05/26 10:10:41;;;;;;;2.43;1.00;;;11.40;99.90;;;;;;6257468;23;20696;-92
2022/05/26 10:13:42;;;;;;;2.40;1.03;;;11.40;99.90;;;;;;6253045;23;20194;-92
2022/05/26 10:16:20;;;;;;;3.63;1.20;;;11.30;99.90;;;;;;6253592;23;20537;-93
2022/05/26 10:19:07;;;;;;;1.10;1.00;;;11.40;99.90;;;;;;6254291;23;20222;-92
2022/05/26 10:21:52;;;;;;;1.80;1.03;;;11.30;99.90;;;;;;6254708;23;20230;-92
2022/05/26 10:24:45;;;;;;;2.13;1.27;;;11.20;99.90;;;;;;6227987;23;20168;-92
2022/05/26 10:27:33;;;;;;;3.87;1.23;;;11.10;99.90;;;;;;6253331;23;20171;-92
2022/05/26 10:30:21;;;;;;;1.20;0.90;;;11.10;99.90;;;;;;6252736;23;20200;-93
2022/05/26 10:33:23;;;;;;;1.40;0.90;;;11.20;99.90;;;;;;6252228;23;20191;-93
2022/05/26 10:36:07;;;;;;;1.30;0.90;;;11.10;99.90;;;;;;6253393;23;20606;-92
2022/05/26 10:38:56;;;;;;;3.10;1.13;;;11.00;99.90;;;;;;6254642;23;20257;-93
2022/05/26 10:41:34;;;;;;;1.23;0.90;;;11.00;99.90;;;;;;6250823;23;20168;-92
2022/05/26 10:44:21;;;;;;;2.67;0.93;;;11.00;99.90;;;;;;6251785;23;20175;-93
2022/05/26 10:46:59;;;;;;;2.30;1.00;;;10.90;99.90;;;;;;6252366;23;20196;-93
2022/05/26 10:49:39;;;;;;;2.70;1.20;;;11.00;99.90;;;;;;6250350;23;20290;-93
2022/05/26 10:52:18;;;;;;;1.90;1.30;;;11.00;99.90;;;;;;6252413;23;20168;-92
2022/05/26 10:54:56;;;;;;;1.70;1.03;;;10.90;99.90;;;;;;6226541;23;20190;-92
2022/05/26 10:57:39;;;;;;;1.80;0.90;;;10.90;99.90;;;;;;6253027;23;20195;-92
2022/05/26 11:00:17;;;;;;;2.60;1.10;;;10.90;99.90;;;;;;6250145;23;20237;-92
2022/05/26 11:02:56;;;;;;;1.27;1.17;;;10.90;99.90;;;;;;6250738;23;20517;-92
2022/05/26 11:05:37;;;;;;;1.23;0.90;;;10.90;99.90;;;;;;6250865;23;20202;-92
2022/05/26 11:08:23;;;;;;;2.37;1.20;;;11.00;99.90;;;;;;6251100;23;20203;-92
2022/05/26 11:10:58;;;;;;;1.60;1.00;;;11.00;99.90;;;;;;6250755;23;20164;-93
2022/05/26 11:13:42;;;;;;;2.17;1.20;;;10.90;99.90;;;;;;6250862;23;20171;-92
2022/05/26 11:19:26;;;;;;;2.20;1.00;;;10.90;99.90;;;;;;6251365;23;20253;-92
2022/05/26 11:21:57;;;;;;;1.73;1.10;;;10.80;99.90;;;;;;6251121;23;20342;-92
2022/05/26 11:24:29;;;;;;;1.87;1.20;;;10.80;99.90;;;;;;6251286;23;20241;-92
2022/05/26 11:27:08;;;;;;;1.40;1.30;;;10.80;99.90;;;;;;6251012;23;20175;-92
2022/05/26 11:29:44;;;;;;;2.97;1.10;;;10.80;99.90;;;;;;6224875;23;20681;-93
2022/05/26 11:38:08;;;;;;;2.30;1.13;;;10.90;99.90;;;;;;6251303;23;20172;-93
2022/05/26 11:40:52;;;;;;;2.43;1.20;;;10.90;99.90;;;;;;6250387;23;20237;-93
2022/05/26 11:43:29;;;;;;;2.33;1.47;;;10.90;99.90;;;;;;6251696;23;20175;-93
2022/05/26 11:46:01;;;;;;;1.73;1.20;;;10.80;99.90;;;;;;6250897;23;20447;-92
2022/05/26 11:48:50;;;;;;;6.50;1.30;;;10.80;99.90;;;;;;6259184;23;20207;-92
2022/05/26 11:51:35;;;;;;;1.87;1.10;;;10.80;99.90;;;;;;6253486;22;20180;-92
2022/05/26 11:54:07;;;;;;;1.87;1.07;;;10.90;99.90;;;;;;6254134;22;20179;-93
2022/05/26 11:56:51;;;;;;;2.83;1.40;;;10.90;99.90;;;;;;6252267;23;20175;-92
2022/05/26 11:59:26;;;;;;;4.07;1.20;;;10.80;99.90;;;;;;6251091;23;20171;-92
2022/05/26 12:02:18;;;;;;;2.13;1.20;;;10.90;99.90;;;;;;6251325;23;20178;-93
2022/05/26 12:04:51;;;;;;;1.90;1.00;;;10.90;99.90;;;;;;6250554;23;20175;-92
2022/05/26 12:07:39;;;;;;;1.10;0.93;;;10.90;99.90;;;;;;6251173;23;20183;-92
2022/05/26 12:10:22;;;;;;;1.80;0.93;;;10.90;99.90;;;;;;6249294;23;20253;-92
2022/05/26 12:13:27;;;;;;;3.33;1.10;;;10.90;99.90;;;;;;6224094;23;20195;-92
2022/05/26 12:16:29;;;;;;;3.33;1.00;;;11.00;99.90;;;;;;6250872;23;20179;-92
2022/05/26 12:19:04;;;;;;;2.37;1.27;;;11.00;99.90;;;;;;6225149;23;20552;-92
2022/05/26 12:22:11;;;;;;;3.60;1.27;;;10.90;99.90;;;;;;6250302;23;20194;-92
2022/05/26 12:25:13;;;;;;;3.93;1.27;;;10.90;99.90;;;;;;6250602;23;20175;-93
2022/05/26 12:28:03;;;;;;;2.17;1.00;;;10.90;99.90;;;;;;6250616;23;20179;-93
2022/05/26 12:31:04;;;;;;;3.13;1.10;;;10.80;99.90;;;;;;6249086;23;20201;-92
2022/05/26 12:34:07;;;;;;;2.00;0.90;;;10.80;99.90;;;;;;6251683;23;20183;-92
2022/05/26 12:37:04;;;;;;;2.40;1.10;;;10.80;99.90;;;;;;6251616;23;20175;-92
2022/05/26 12:40:06;;;;;;;1.80;0.90;;;10.80;99.90;;;;;;6249952;23;20175;-93
2022/05/26 12:42:57;;;;;;;0.80;0.80;;;10.80;99.90;;;;;;6250592;23;20213;-91
2022/05/26 12:45:39;;;;;;;1.70;1.40;;;10.80;99.90;;;;;;6248096;23;20188;-90
2022/05/26 12:48:50;;;;;;;2.10;0.90;;;10.80;99.90;;;;;;6226264;22;20227;-92
2022/05/26 12:51:21;;;;;;;2.57;1.10;;;10.80;99.90;;;;;;6222627;23;20180;-92
2022/05/26 12:54:02;;;;;;;3.30;1.30;;;10.80;99.90;;;;;;6251493;23;20238;-91
2022/05/26 12:56:48;;;;;;;2.07;1.20;;;10.80;99.90;;;;;;6250538;23;20178;-92
2022/05/26 12:59:26;;;;;;;3.03;1.17;;;10.90;99.90;;;;;;6251505;23;20167;-91
2022/05/26 13:01:58;;;;;;;3.97;1.60;;;10.90;99.90;;;;;;6251278;23;20176;-91
2022/05/26 13:04:34;;;;;;;2.60;1.30;;;11.00;99.90;;;;;;6251087;23;20179;-92
2022/05/26 13:07:08;;;;;;;2.40;1.30;;;11.00;99.90;;;;;;6249188;23;20179;-92
2022/05/26 13:09:45;;;;;;;2.63;1.37;;;11.10;99.90;;;;;;6248922;23;20206;-91
2022/05/26 13:12:23;;;;;;;2.50;1.20;;;11.10;99.90;;;;;;6250825;23;20164;-92
2022/05/26 13:14:59;;;;;;;2.73;1.20;;;11.10;99.90;;;;;;6250154;23;20237;-91
2022/05/26 13:17:31;;;;;;;5.63;1.20;;;11.20;99.90;;;;;;6249845;23;20187;-91
2022/05/26 13:20:04;;;;;;;4.07;1.20;;;11.20;99.90;;;;;;6250785;23;20306;-91
2022/05/26 13:22:37;;;;;;;3.63;1.23;;;11.20;99.90;;;;;;6255791;22;20163;-91
2022/05/26 13:25:14;;;;;;;2.63;1.10;;;11.20;99.90;;;;;;6252570;23;20481;-91
2022/05/26 13:27:49;;;;;;;2.80;1.10;;;11.20;99.90;;;;;;6251337;23;20250;-92
2022/05/26 13:33:22;;;;;;;1.77;1.40;;;11.40;99.90;;;;;;6250129;23;20630;-91
2022/05/26 13:35:58;;;;;;;2.67;1.30;;;11.60;99.90;;;;;;6254029;23;20185;-91
2022/05/26 13:38:34;;;;;;;6.50;2.50;;;11.60;99.90;;;;;;6250199;23;20167;-91
2022/05/26 13:41:13;;;;;;;2.17;1.27;;;11.60;99.90;;;;;;6251997;23;20606;-92
2022/05/26 13:43:46;;;;;;;2.00;1.30;;;11.70;99.90;;;;;;6249912;23;20233;-92
2022/05/26 13:46:25;;;;;;;3.43;1.20;;;11.70;99.90;;;;;;6251082;23;20250;-91
2022/05/26 13:49:00;;;;;;;3.87;1.43;;;11.70;99.90;;;;;;6250949;23;20195;-91
2022/05/26 13:51:40;;;;;;;3.93;1.40;;;11.80;99.90;;;;;;6248873;23;20175;-91
2022/05/26 13:54:32;;;;;;;5.37;1.63;;;11.80;99.90;;;;;;6224306;23;20625;-91
2022/05/26 13:57:13;;;;;;;3.27;1.20;;;12.00;99.90;;;;;;6250730;23;20633;-91
2022/05/26 13:59:48;;;;;;;5.20;1.60;;;12.10;99.90;;;;;;6249023;23;20230;-92
2022/05/26 14:02:23;;;;;;;3.50;1.23;;;12.10;99.90;;;;;;6250693;23;20490;-92
2022/05/26 14:05:08;;;;;;;5.83;1.63;;;12.20;99.90;;;;;;6250237;23;20175;-92
2022/05/26 14:07:42;;;;;;;6.77;1.90;;;12.20;99.90;;;;;;6250347;23;20246;-92
2022/05/26 14:10:22;;;;;;;3.77;1.60;;;12.20;99.90;;;;;;6250130;23;20246;-91
2022/05/26 14:13:07;;;;;;;6.67;1.40;;;12.20;99.90;;;;;;6250042;23;20175;-92
2022/05/26 14:15:49;;;;;;;4.10;1.53;;;12.20;99.90;;;;;;6250927;23;20176;-92
2022/05/26 14:18:28;;;;;;;4.20;1.33;;;12.30;99.90;;;;;;6256708;23;20172;-91
2022/05/26 14:21:02;;;;;;;3.77;1.67;;;12.50;99.90;;;;;;6268927;23;20210;-91
2022/05/26 14:23:35;;;;;;;4.67;1.43;;;12.50;99.90;;;;;;6270998;23;20214;-91
2022/05/26 14:26:32;;;;;;;3.33;1.20;;;12.60;99.90;;;;;;6266675;23;20195;-91
2022/05/26 14:29:13;;;;;;;6.07;1.40;;;12.60;99.90;;;;;;6233467;23;20242;-91
2022/05/26 14:31:59;;;;;;;3.47;1.30;;;12.80;99.90;;;;;;6258585;23;20223;-91
2022/05/26 14:34:35;;;;;;;2.30;1.20;;;13.00;99.90;;;;;;6256016;23;20187;-92
2022/05/26 14:37:08;;;;;;;3.43;1.10;;;13.20;99.90;;;;;;6253412;23;20237;-91
2022/05/26 14:39:40;;;;;;;2.10;1.00;;;13.40;99.90;;;;;;6252974;23;20230;-92